Time;durP1;ratioP1;P1;durP2;ratioP2;P2;SDS_P1;SDS_P2;PMS_P1;PMS_P2;Temp;Humidity;BMP_temperature;BMP_pressure;BME280_temperature;BME280_humidity;BME280_pressure;Samples;Min_cycle;Max_cycle;Signal;HPM_P1;HPM_P2
2024/04/14 00:01:07;;;;;;;20.40;7.97;;;;;;;;;;6462906;22;20450;-50
2024/04/14 00:03:57;;;;;;;21.08;8.45;;;;;;;;;;6462360;22;20016;-50
2024/04/14 00:06:57;;;;;;;28.92;9.15;;;;;;;;;;6462655;22;20493;-54
2024/04/14 00:09:44;;;;;;;26.15;9.02;;;;;;;;;;6464675;22;19998;-49
2024/04/14 00:12:39;;;;;;;30.50;9.80;;;;;;;;;;6463523;22;19998;-53
2024/04/14 00:15:26;;;;;;;26.52;8.98;;;;;;;;;;6463652;22;19998;-53
2024/04/14 00:18:21;;;;;;;22.45;8.40;;;;;;;;;;6463609;22;20790;-51
2024/04/14 00:21:10;;;;;;;22.42;7.80;;;;;;;;;;6467540;22;20002;-60
2024/04/14 00:24:03;;;;;;;18.90;6.60;;;;;;;;;;6468476;22;20009;-67
2024/04/14 00:26:50;;;;;;;12.80;5.10;;;;;;;;;;6466313;22;20002;-68
2024/04/14 00:29:50;;;;;;;9.57;4.95;;;;;;;;;;6463568;22;20039;-67
2024/04/14 00:32:39;;;;;;;12.40;4.60;;;;;;;;;;6464889;22;20369;-66
2024/04/14 00:35:33;;;;;;;10.68;3.67;;;;;;;;;;6465245;22;20077;-67
2024/04/14 00:38:20;;;;;;;10.90;3.60;;;;;;;;;;6465943;22;20001;-59
2024/04/14 00:41:15;;;;;;;9.60;3.90;;;;;;;;;;6465904;22;20596;-60
2024/04/14 00:44:02;;;;;;;8.02;3.85;;;;;;;;;;6462352;22;20037;-60
2024/04/14 00:46:56;;;;;;;12.85;4.47;;;;;;;;;;6463817;22;20072;-60
2024/04/14 00:49:43;;;;;;;12.93;5.38;;;;;;;;;;6465051;22;20076;-59
2024/04/14 00:52:38;;;;;;;8.43;3.45;;;;;;;;;;6465591;22;19993;-60
2024/04/14 00:55:25;;;;;;;12.82;4.80;;;;;;;;;;6465333;22;19998;-60
2024/04/14 00:58:19;;;;;;;12.55;4.18;;;;;;;;;;6465585;22;20746;-60
2024/04/14 01:01:06;;;;;;;9.65;3.88;;;;;;;;;;6463313;22;20515;-60
2024/04/14 01:04:01;;;;;;;8.45;3.50;;;;;;;;;;6464436;22;20068;-60
2024/04/14 01:06:54;;;;;;;9.68;2.30;;;;;;;;;;6465189;22;20001;-61
2024/04/14 01:09:49;;;;;;;6.03;2.78;;;;;;;;;;6463940;22;20453;-61
2024/04/14 01:12:36;;;;;;;14.25;3.58;;;;;;;;;;6461882;22;20077;-61
2024/04/14 01:15:31;;;;;;;14.68;3.55;;;;;;;;;;6464473;22;20087;-61
2024/04/14 01:18:17;;;;;;;8.77;2.80;;;;;;;;;;6466237;22;20006;-59
2024/04/14 01:21:12;;;;;;;15.15;3.85;;;;;;;;;;6466894;22;19997;-67
2024/04/14 01:23:59;;;;;;;22.00;4.63;;;;;;;;;;6465386;22;20453;-67
2024/04/14 01:26:54;;;;;;;27.77;4.80;;;;;;;;;;6466656;22;20008;-66
2024/04/14 01:29:48;;;;;;;32.22;5.53;;;;;;;;;;6462698;22;20009;-66
2024/04/14 01:32:43;;;;;;;20.73;4.80;;;;;;;;;;6464721;22;19994;-66
2024/04/14 01:35:30;;;;;;;17.95;4.82;;;;;;;;;;6466581;22;20009;-62
2024/04/14 01:38:24;;;;;;;21.60;5.05;;;;;;;;;;6465217;22;19994;-62
2024/04/14 01:41:11;;;;;;;41.72;6.93;;;;;;;;;;6465875;22;20084;-62
2024/04/14 01:44:05;;;;;;;27.33;5.40;;;;;;;;;;6462604;22;20010;-66
2024/04/14 01:46:52;;;;;;;38.53;6.30;;;;;;;;;;6462831;22;20006;-53
2024/04/14 01:49:46;;;;;;;32.65;5.78;;;;;;;;;;6464855;22;20656;-56
2024/04/14 01:52:34;;;;;;;42.08;6.10;;;;;;;;;;6465958;22;20002;-55
2024/04/14 01:55:28;;;;;;;39.42;6.10;;;;;;;;;;6465094;22;20006;-56
2024/04/14 01:58:15;;;;;;;48.75;6.82;;;;;;;;;;6463453;22;20274;-55
2024/04/14 02:01:09;;;;;;;36.88;5.35;;;;;;;;;;6464049;22;20791;-54
2024/04/14 02:03:56;;;;;;;41.75;6.13;;;;;;;;;;6465320;22;20012;-51
2024/04/14 02:06:56;;;;;;;34.63;4.65;;;;;;;;;;6465309;22;20652;-53
2024/04/14 02:09:43;;;;;;;26.15;5.45;;;;;;;;;;6465477;22;20757;-52
2024/04/14 02:12:38;;;;;;;35.88;5.40;;;;;;;;;;6466473;22;20433;-61
2024/04/14 02:15:26;;;;;;;21.02;3.33;;;;;;;;;;6467038;22;20555;-61
2024/04/14 02:18:19;;;;;;;32.72;7.18;;;;;;;;;;6466164;22;19998;-61
2024/04/14 02:21:07;;;;;;;31.52;4.70;;;;;;;;;;6464748;22;20009;-61
2024/04/14 02:24:01;;;;;;;26.15;3.70;;;;;;;;;;6464887;22;20515;-60
2024/04/14 02:26:48;;;;;;;28.00;4.43;;;;;;;;;;6463465;22;20805;-60
2024/04/14 02:29:48;;;;;;;27.80;4.30;;;;;;;;;;6462008;22;20017;-61
2024/04/14 02:32:36;;;;;;;27.13;4.82;;;;;;;;;;6465542;22;20016;-48
2024/04/14 02:35:30;;;;;;;36.55;5.35;;;;;;;;;;6465336;22;20008;-48
2024/04/14 02:38:17;;;;;;;22.92;3.05;;;;;;;;;;6463733;22;20080;-52
2024/04/14 02:41:11;;;;;;;30.33;4.03;;;;;;;;;;6464263;22;20449;-61
2024/04/14 02:43:58;;;;;;;27.23;4.65;;;;;;;;;;6461749;22;20050;-61
2024/04/14 02:46:52;;;;;;;29.30;4.55;;;;;;;;;;6464013;22;20005;-61
2024/04/14 02:49:39;;;;;;;32.17;4.32;;;;;;;;;;6464789;22;19998;-61
2024/04/14 02:52:33;;;;;;;25.60;5.07;;;;;;;;;;6463875;22;19997;-61
2024/04/14 02:55:20;;;;;;;28.50;4.50;;;;;;;;;;6464079;22;20160;-61
2024/04/14 02:58:15;;;;;;;38.97;4.65;;;;;;;;;;6463295;22;20069;-61
2024/04/14 03:01:03;;;;;;;23.05;4.00;;;;;;;;;;6462966;22;20057;-60
2024/04/14 03:03:57;;;;;;;28.95;4.30;;;;;;;;;;6463740;22;20037;-60
2024/04/14 03:06:55;;;;;;;32.80;4.60;;;;;;;;;;6464191;22;20029;-60
2024/04/14 03:09:52;;;;;;;34.67;3.83;;;;;;;;;;6465539;22;20009;-60
2024/04/14 03:12:40;;;;;;;37.08;6.03;;;;;;;;;;6463238;22;20002;-65
2024/04/14 03:15:37;;;;;;;35.35;4.57;;;;;;;;;;6465702;22;19994;-65
2024/04/14 03:18:24;;;;;;;34.13;5.28;;;;;;;;;;6466850;22;20002;-65
2024/04/14 03:21:18;;;;;;;24.50;3.38;;;;;;;;;;6465106;22;20076;-65
2024/04/14 03:24:05;;;;;;;34.25;4.68;;;;;;;;;;6465250;22;19998;-64
2024/04/14 03:26:59;;;;;;;32.72;4.00;;;;;;;;;;6464820;22;20076;-65
2024/04/14 03:29:59;;;;;;;30.42;4.28;;;;;;;;;;6460497;22;20080;-61
2024/04/14 03:32:54;;;;;;;26.00;3.75;;;;;;;;;;6461928;22;20009;-61
2024/04/14 03:35:41;;;;;;;27.70;4.13;;;;;;;;;;6464057;22;20014;-61
2024/04/14 03:38:36;;;;;;;24.23;3.47;;;;;;;;;;6464251;22;20009;-62
2024/04/14 03:41:24;;;;;;;28.25;5.30;;;;;;;;;;6464896;22;19998;-51
2024/04/14 03:44:17;;;;;;;29.50;4.05;;;;;;;;;;6461240;22;20010;-50
2024/04/14 03:47:04;;;;;;;23.38;4.10;;;;;;;;;;6463404;22;20025;-52
2024/04/14 03:49:58;;;;;;;25.52;3.55;;;;;;;;;;6463082;22;20378;-51
2024/04/14 03:52:46;;;;;;;25.15;3.97;;;;;;;;;;6463021;22;20020;-53
2024/04/14 03:55:41;;;;;;;30.05;4.28;;;;;;;;;;6465826;22;20018;-51
2024/04/14 03:58:28;;;;;;;24.80;5.07;;;;;;;;;;6466987;22;20013;-63
2024/04/14 04:01:22;;;;;;;43.90;6.78;;;;;;;;;;6465114;22;20006;-62
2024/04/14 04:04:16;;;;;;;31.90;4.15;;;;;;;;;;6465753;22;20457;-62
2024/04/14 04:07:10;;;;;;;28.48;4.57;;;;;;;;;;6466832;22;20042;-49
2024/04/14 04:10:07;;;;;;;29.85;4.03;;;;;;;;;;6466897;22;20536;-52
2024/04/14 04:12:55;;;;;;;20.27;3.42;;;;;;;;;;6466970;22;20006;-51
2024/04/14 04:15:59;;;;;;;25.85;3.63;;;;;;;;;;6467617;22;20071;-53
2024/04/14 04:18:46;;;;;;;17.95;2.65;;;;;;;;;;6467858;22;20023;-49
2024/04/14 04:21:59;;;;;;;35.20;5.60;;;;;;;;;;6465806;22;19998;-49
2024/04/14 04:24:47;;;;;;;23.10;3.30;;;;;;;;;;6468277;22;19998;-53
2024/04/14 04:27:41;;;;;;;22.77;3.53;;;;;;;;;;6467572;22;20012;-55
2024/04/14 04:30:34;;;;;;;18.58;3.65;;;;;;;;;;6466512;22;19998;-53
2024/04/14 04:33:29;;;;;;;28.05;4.22;;;;;;;;;;6466069;22;19998;-51
2024/04/14 04:36:17;;;;;;;30.20;3.33;;;;;;;;;;6464904;22;20050;-62
2024/04/14 04:39:11;;;;;;;30.90;3.67;;;;;;;;;;6464520;22;19998;-63
2024/04/14 04:41:58;;;;;;;34.72;4.65;;;;;;;;;;6463108;22;19994;-62
2024/04/14 04:44:52;;;;;;;32.40;3.85;;;;;;;;;;6465325;22;20041;-62
2024/04/14 04:47:47;;;;;;;20.67;3.00;;;;;;;;;;6463608;22;20009;-62
2024/04/14 04:50:44;;;;;;;20.70;3.10;;;;;;;;;;6465042;22;20073;-62
2024/04/14 04:53:31;;;;;;;27.60;3.83;;;;;;;;;;6464891;22;19998;-60
2024/04/14 04:56:25;;;;;;;31.08;5.65;;;;;;;;;;6465140;22;20612;-61
2024/04/14 04:59:19;;;;;;;41.80;4.82;;;;;;;;;;6464568;22;20010;-60
2024/04/14 05:02:06;;;;;;;29.58;3.78;;;;;;;;;;6428186;22;20052;-61
2024/04/14 05:05:00;;;;;;;26.08;4.25;;;;;;;;;;6465546;22;19994;-64
2024/04/14 05:07:54;;;;;;;42.45;5.00;;;;;;;;;;6465113;22;20065;-53
2024/04/14 05:10:48;;;;;;;39.72;4.47;;;;;;;;;;6464499;22;20006;-51
2024/04/14 05:13:35;;;;;;;13.10;3.08;;;;;;;;;;6463786;22;20089;-53
2024/04/14 05:16:29;;;;;;;16.13;3.13;;;;;;;;;;6466700;22;20076;-51
2024/04/14 05:19:16;;;;;;;29.77;4.10;;;;;;;;;;6467086;22;20089;-50
2024/04/14 05:22:14;;;;;;;33.58;4.40;;;;;;;;;;6466220;22;19998;-61
2024/04/14 05:25:08;;;;;;;29.85;3.40;;;;;;;;;;6467759;22;19998;-61
2024/04/14 05:27:55;;;;;;;31.83;4.20;;;;;;;;;;6468607;22;20057;-61
2024/04/14 05:30:55;;;;;;;19.83;3.83;;;;;;;;;;6368078;22;20100;-61
2024/04/14 05:33:43;;;;;;;32.70;4.78;;;;;;;;;;6368528;22;20068;-58
2024/04/14 05:36:37;;;;;;;25.63;4.18;;;;;;;;;;6366843;22;20011;-61
2024/04/14 05:39:24;;;;;;;29.10;4.43;;;;;;;;;;6366061;22;20000;-61
2024/04/14 05:42:18;;;;;;;11.20;2.80;;;;;;;;;;6362754;22;20051;-61
2024/04/14 05:45:22;;;;;;;24.88;3.83;;;;;;;;;;6365825;22;20036;-61
2024/04/14 05:48:16;;;;;;;23.67;4.38;;;;;;;;;;6364064;22;20031;-61
2024/04/14 05:51:03;;;;;;;30.98;4.07;;;;;;;;;;6365041;22;20007;-59
2024/04/14 05:53:57;;;;;;;35.88;5.80;;;;;;;;;;6362608;22;20000;-59
2024/04/14 05:56:44;;;;;;;21.88;2.83;;;;;;;;;;6365878;22;20359;-59
2024/04/14 05:59:18;;;;;;;25.20;3.95;;;;;;;;;;6365411;22;20088;-59
2024/04/14 06:01:47;;;;;;;26.77;4.53;;;;;;;;;;6364425;22;20044;-59
2024/04/14 06:04:15;;;;;;;33.17;5.68;;;;;;;;;;6367079;22;20071;-50
2024/04/14 06:06:56;;;;;;;27.80;3.90;;;;;;;;;;6366332;22;20439;-50
2024/04/14 06:09:24;;;;;;;19.38;3.67;;;;;;;;;;6363820;22;20003;-48
2024/04/14 06:11:58;;;;;;;25.33;3.78;;;;;;;;;;6362564;22;20035;-50
2024/04/14 06:14:25;;;;;;;;;;;;;;;;;;6364021;22;20003;-54
2024/04/14 06:16:53;;;;;;;18.23;2.70;;;;;;;;;;6363389;22;19936;-54
2024/04/14 06:19:27;;;;;;;22.80;4.05;;;;;;;;;;6364282;22;20766;-62
2024/04/14 06:22:21;;;;;;;19.08;3.13;;;;;;;;;;6364415;22;20499;-62
2024/04/14 06:25:08;;;;;;;13.88;3.53;;;;;;;;;;6366058;22;20009;-62
2024/04/14 06:28:02;;;;;;;37.15;5.90;;;;;;;;;;6364991;22;20000;-62
2024/04/14 06:30:56;;;;;;;17.15;3.80;;;;;;;;;;6365543;22;20450;-61
2024/04/14 06:33:50;;;;;;;25.13;4.40;;;;;;;;;;6388156;22;20430;-54
2024/04/14 06:36:37;;;;;;;21.40;3.85;;;;;;;;;;6414351;22;20486;-56
2024/04/14 06:39:32;;;;;;;19.40;2.47;;;;;;;;;;6414772;22;20065;-55
2024/04/14 06:42:26;;;;;;;26.90;4.85;;;;;;;;;;6412915;22;19999;-51
2024/04/14 06:44:53;;;;;;;;;;;;;;;;;;6395335;22;20010;-54
2024/04/14 06:47:27;;;;;;;22.25;2.92;;;;;;;;;;6415864;22;19923;-62
2024/04/14 06:49:57;;;;;;;26.35;4.10;;;;;;;;;;6413741;22;20011;-62
2024/04/14 06:52:24;;;;;;;37.50;4.22;;;;;;;;;;6417379;22;20077;-63
2024/04/14 06:54:58;;;;;;;39.53;6.05;;;;;;;;;;6416940;22;20289;-62
2024/04/14 06:57:25;;;;;;;;;;;;;;;;;;6415782;22;20006;-60
2024/04/14 06:59:59;;;;;;;33.15;5.32;;;;;;;;;;6415027;22;19930;-51
2024/04/14 07:02:26;;;;;;;;;;;;;;;;;;6414516;22;20080;-62
2024/04/14 07:04:53;;;;;;;26.48;4.43;;;;;;;;;;6413761;22;19947;-61
2024/04/14 07:07:36;;;;;;;19.83;3.10;;;;;;;;;;6416915;22;20450;-61
2024/04/14 07:10:03;;;;;;;31.50;5.45;;;;;;;;;;6415909;22;20010;-61
2024/04/14 07:12:37;;;;;;;20.40;3.10;;;;;;;;;;6412504;22;19998;-62
2024/04/14 07:15:05;;;;;;;23.92;4.07;;;;;;;;;;6413636;22;20011;-61
2024/04/14 07:17:33;;;;;;;;;;;;;;;;;;6415924;22;20079;-59
2024/04/14 07:20:07;;;;;;;30.42;5.47;;;;;;;;;;6411838;22;19922;-59
2024/04/14 07:22:34;;;;;;;28.40;4.10;;;;;;;;;;6414675;22;20007;-59
2024/04/14 07:25:10;;;;;;;17.30;3.92;;;;;;;;;;6415630;22;19999;-59
2024/04/14 07:27:38;;;;;;;23.42;3.78;;;;;;;;;;6413531;22;20315;-52
2024/04/14 07:30:05;;;;;;;31.15;5.57;;;;;;;;;;6493719;22;20049;-62
2024/04/14 07:32:45;;;;;;;26.92;4.78;;;;;;;;;;6518388;22;20016;-62
2024/04/14 07:35:13;;;;;;;36.80;6.10;;;;;;;;;;6515252;22;20005;-62
2024/04/14 07:37:47;;;;;;;17.65;2.72;;;;;;;;;;6518068;22;20037;-62
2024/04/14 07:40:14;;;;;;;24.98;4.43;;;;;;;;;;6519764;22;20012;-62
2024/04/14 07:42:41;;;;;;;23.83;3.85;;;;;;;;;;6517544;22;20001;-62
2024/04/14 07:45:35;;;;;;;22.52;3.83;;;;;;;;;;6520348;22;20012;-56
2024/04/14 07:48:23;;;;;;;23.50;3.90;;;;;;;;;;6515871;22;20468;-55
2024/04/14 07:51:17;;;;;;;23.42;4.72;;;;;;;;;;6518737;22;20012;-55
2024/04/14 07:54:04;;;;;;;28.98;5.18;;;;;;;;;;6517461;22;20019;-62
2024/04/14 07:57:01;;;;;;;30.08;3.75;;;;;;;;;;6517523;22;20317;-59
2024/04/14 07:59:48;;;;;;;23.73;2.83;;;;;;;;;;6517853;22;20079;-59
2024/04/14 08:02:42;;;;;;;28.98;5.13;;;;;;;;;;6517790;22;20041;-59
2024/04/14 08:05:28;;;;;;;30.13;4.30;;;;;;;;;;6516837;22;20006;-59
2024/04/14 08:08:28;;;;;;;18.40;2.72;;;;;;;;;;6517338;22;20425;-60
2024/04/14 08:11:16;;;;;;;25.98;3.17;;;;;;;;;;6517408;22;20403;-60
2024/04/14 08:14:13;;;;;;;26.15;3.78;;;;;;;;;;6518187;22;20005;-62
2024/04/14 08:17:05;;;;;;;21.48;3.17;;;;;;;;;;6517649;22;20079;-62
2024/04/14 08:19:59;;;;;;;26.45;4.00;;;;;;;;;;6514504;22;20005;-62
2024/04/14 08:22:47;;;;;;;21.65;3.80;;;;;;;;;;6520691;22;20012;-60
2024/04/14 08:25:40;;;;;;;33.95;4.72;;;;;;;;;;6519087;22;19996;-55
2024/04/14 08:28:28;;;;;;;27.55;4.40;;;;;;;;;;6516499;22;20071;-53
2024/04/14 08:31:28;;;;;;;30.58;4.60;;;;;;;;;;6520036;22;20004;-56
2024/04/14 08:34:23;;;;;;;15.75;2.63;;;;;;;;;;6519720;22;20009;-55
2024/04/14 08:37:10;;;;;;;20.42;2.85;;;;;;;;;;6517488;22;20437;-51
2024/04/14 08:40:05;;;;;;;34.45;5.53;;;;;;;;;;6517726;22;20461;-53
2024/04/14 08:42:53;;;;;;;29.75;5.13;;;;;;;;;;6516913;22;20436;-55
2024/04/14 08:45:47;;;;;;;18.02;3.33;;;;;;;;;;6518056;22;19997;-55
2024/04/14 08:48:42;;;;;;;17.48;3.45;;;;;;;;;;6516521;22;19997;-54
2024/04/14 08:51:30;;;;;;;21.42;4.00;;;;;;;;;;6518150;22;20013;-62
2024/04/14 08:54:24;;;;;;;25.83;3.95;;;;;;;;;;6515871;22;20034;-63
2024/04/14 08:57:13;;;;;;;32.22;5.15;;;;;;;;;;6517178;22;20033;-62
2024/04/14 09:00:09;;;;;;;17.13;3.40;;;;;;;;;;6516025;22;19993;-62
2024/04/14 09:02:54;;;;;;;27.17;4.82;;;;;;;;;;6477317;22;20012;-62
2024/04/14 09:05:48;;;;;;;24.05;3.67;;;;;;;;;;6517128;22;19993;-63
2024/04/14 09:08:50;;;;;;;18.75;3.47;;;;;;;;;;6517714;22;20005;-62
2024/04/14 09:11:37;;;;;;;21.83;4.38;;;;;;;;;;6517976;21;20445;-63
2024/04/14 09:14:31;;;;;;;15.07;2.67;;;;;;;;;;6515670;22;20075;-63
2024/04/14 09:17:20;;;;;;;22.50;3.75;;;;;;;;;;6516529;22;20009;-63
2024/04/14 09:20:14;;;;;;;16.48;3.63;;;;;;;;;;6516856;22;20002;-65
2024/04/14 09:23:04;;;;;;;21.13;4.10;;;;;;;;;;6518166;22;20012;-65
2024/04/14 09:25:58;;;;;;;27.15;4.47;;;;;;;;;;6517450;22;20019;-64
2024/04/14 09:28:51;;;;;;;25.42;3.67;;;;;;;;;;6514855;22;20061;-65
2024/04/14 09:31:52;;;;;;;18.77;3.20;;;;;;;;;;6514457;22;20001;-64
2024/04/14 09:34:40;;;;;;;20.92;3.05;;;;;;;;;;6516764;22;20012;-65
2024/04/14 09:37:34;;;;;;;13.15;2.85;;;;;;;;;;6519241;22;20071;-66
2024/04/14 09:40:29;;;;;;;21.80;3.35;;;;;;;;;;6517858;22;20428;-63
2024/04/14 09:43:23;;;;;;;12.60;2.80;;;;;;;;;;6515677;22;20088;-59
2024/04/14 09:46:11;;;;;;;17.42;3.60;;;;;;;;;;6516724;22;20084;-59
2024/04/14 09:49:05;;;;;;;20.05;3.08;;;;;;;;;;6517117;22;19997;-59
2024/04/14 09:51:53;;;;;;;14.90;3.83;;;;;;;;;;6515478;22;20525;-58
2024/04/14 09:54:48;;;;;;;14.38;1.90;;;;;;;;;;6514590;22;19997;-58
2024/04/14 09:57:35;;;;;;;13.95;3.10;;;;;;;;;;6516731;22;20376;-66
2024/04/14 10:00:29;;;;;;;16.67;3.00;;;;;;;;;;6515736;22;20067;-66
2024/04/14 10:03:18;;;;;;;20.88;2.90;;;;;;;;;;6512961;22;19997;-65
2024/04/14 10:06:12;;;;;;;15.50;2.85;;;;;;;;;;6517670;22;20008;-60
2024/04/14 10:09:11;;;;;;;21.98;3.50;;;;;;;;;;6515731;22;20005;-52
2024/04/14 10:12:03;;;;;;;14.18;2.58;;;;;;;;;;6516048;21;19997;-52
2024/04/14 10:14:51;;;;;;;19.83;3.57;;;;;;;;;;6516284;22;20001;-48
2024/04/14 10:17:46;;;;;;;22.20;3.78;;;;;;;;;;6517439;22;19997;-50
2024/04/14 10:20:40;;;;;;;12.40;2.95;;;;;;;;;;6515990;22;20001;-50
2024/04/14 10:23:43;;;;;;;19.95;3.80;;;;;;;;;;6516517;22;20007;-51
2024/04/14 10:26:33;;;;;;;15.02;2.88;;;;;;;;;;6517861;22;20922;-61
2024/04/14 10:29:34;;;;;;;14.00;2.30;;;;;;;;;;6512238;22;19993;-61
2024/04/14 10:32:28;;;;;;;11.88;2.33;;;;;;;;;;6515681;22;20052;-61
2024/04/14 10:35:25;;;;;;;24.88;3.75;;;;;;;;;;6517126;22;20729;-48
2024/04/14 10:38:21;;;;;;;22.67;3.88;;;;;;;;;;6516824;22;20009;-52
2024/04/14 10:41:17;;;;;;;22.65;4.07;;;;;;;;;;6515565;22;19993;-51
2024/04/14 10:44:13;;;;;;;20.88;4.35;;;;;;;;;;6516115;22;20364;-49
2024/04/14 10:47:15;;;;;;;23.30;4.50;;;;;;;;;;6517243;22;19993;-53
2024/04/14 10:50:02;;;;;;;21.65;4.10;;;;;;;;;;6516810;22;20134;-49
2024/04/14 10:52:56;;;;;;;20.55;3.00;;;;;;;;;;6517440;22;20009;-52
2024/04/14 10:55:43;;;;;;;17.17;3.88;;;;;;;;;;6518699;22;20107;-62
2024/04/14 10:58:38;;;;;;;22.90;3.83;;;;;;;;;;6516542;22;20436;-62
2024/04/14 11:01:31;;;;;;;18.15;3.50;;;;;;;;;;6515291;22;20001;-62
2024/04/14 11:04:18;;;;;;;26.70;4.95;;;;;;;;;;6516628;22;20415;-60
2024/04/14 16:05:12;;;;;;;10.20;2.03;;;;;;;;;;5972313;22;9252481;-88
2024/04/14 16:07:46;;;;;;;14.40;2.72;;;;;;;;;;6371480;22;20039;-88
2024/04/14 16:10:20;;;;;;;11.25;2.30;;;;;;;;;;6373446;22;20007;-88
2024/04/14 16:12:47;;;;;;;;;;;;;;;;;;6371561;22;20467;-87
2024/04/14 16:15:15;;;;;;;10.13;2.33;;;;;;;;;;6413017;22;19935;-87
2024/04/14 16:17:49;;;;;;;14.70;3.00;;;;;;;;;;6371187;22;20010;-87
2024/04/14 16:20:17;;;;;;;;;;;;;;;;;;6373065;22;20007;-87
2024/04/14 16:22:51;;;;;;;20.15;2.80;;;;;;;;;;6411743;22;20408;-86
2024/04/14 16:25:18;;;;;;;10.85;2.47;;;;;;;;;;6373080;22;20031;-87
2024/04/14 16:27:46;;;;;;;15.10;2.60;;;;;;;;;;6371480;22;20027;-87
2024/04/14 16:30:21;;;;;;;13.63;2.70;;;;;;;;;;6373747;22;20027;-87
2024/04/14 16:32:49;;;;;;;12.73;2.22;;;;;;;;;;6371428;22;20003;-87
2024/04/14 16:35:23;;;;;;;15.48;3.40;;;;;;;;;;6370614;22;20059;-86
2024/04/14 16:37:50;;;;;;;12.73;3.13;;;;;;;;;;6373002;22;20091;-88
2024/04/14 16:40:18;;;;;;;16.10;2.80;;;;;;;;;;6369459;22;20074;-87
2024/04/14 16:42:53;;;;;;;17.02;2.88;;;;;;;;;;6372372;22;19999;-87
2024/04/14 16:45:20;;;;;;;;;;;;;;;;;;6373276;22;20007;-86
2024/04/14 16:47:53;;;;;;;15.55;3.40;;;;;;;;;;6411917;22;19996;-87
2024/04/14 16:50:27;;;;;;;19.02;3.55;;;;;;;;;;6370281;22;20007;-86
2024/04/14 16:52:55;;;;;;;13.85;2.80;;;;;;;;;;6370818;22;20007;-85
2024/04/14 16:55:29;;;;;;;11.40;2.22;;;;;;;;;;6374483;22;20085;-87
2024/04/14 16:57:57;;;;;;;;;;;;;;;;;;6370431;22;20293;-86
2024/04/14 17:00:26;;;;;;;18.27;3.38;;;;;;;;;;6371001;22;19923;-87
2024/04/14 17:03:07;;;;;;;21.30;3.88;;;;;;;;;;6370539;22;20007;-86
2024/04/14 17:05:40;;;;;;;17.67;3.17;;;;;;;;;;6373726;22;19999;-87
2024/04/14 17:08:14;;;;;;;17.00;3.78;;;;;;;;;;6372485;22;20009;-86
2024/04/14 17:10:41;;;;;;;;;;;;;;;;;;6372254;22;20007;-85
2024/04/14 17:13:09;;;;;;;15.95;3.63;;;;;;;;;;6370062;22;19952;-86
2024/04/14 17:15:50;;;;;;;22.73;4.40;;;;;;;;;;6370128;22;20018;-86
2024/04/14 17:18:17;;;;;;;21.65;3.80;;;;;;;;;;6370064;22;20424;-86
2024/04/14 17:20:51;;;;;;;22.08;3.67;;;;;;;;;;6372832;22;20019;-85
2024/04/14 17:23:19;;;;;;;19.95;3.75;;;;;;;;;;6370967;22;20003;-85
2024/04/14 17:25:47;;;;;;;15.20;3.75;;;;;;;;;;6371037;22;20015;-86
2024/04/14 17:28:21;;;;;;;18.60;3.38;;;;;;;;;;6372412;22;20026;-85
2024/04/14 17:30:48;;;;;;;;;;;;;;;;;;6372652;22;20003;-85
2024/04/14 17:33:16;;;;;;;25.38;3.92;;;;;;;;;;6371474;22;19924;-86
2024/04/14 17:35:50;;;;;;;51.65;5.18;;;;;;;;;;6373583;22;20014;-85
2024/04/14 17:38:17;;;;;;;38.33;5.35;;;;;;;;;;6374157;22;20524;-86
2024/04/14 17:40:51;;;;;;;26.00;5.28;;;;;;;;;;6373192;22;20019;-85
2024/04/14 17:43:18;;;;;;;30.05;5.63;;;;;;;;;;6374900;22;20079;-86
2024/04/14 17:45:46;;;;;;;27.98;4.97;;;;;;;;;;6372507;22;20015;-86
2024/04/14 17:48:26;;;;;;;22.85;4.43;;;;;;;;;;6375098;22;20003;-85
2024/04/14 17:50:54;;;;;;;24.95;4.70;;;;;;;;;;6375163;22;20003;-86
2024/04/14 17:53:36;;;;;;;32.17;5.45;;;;;;;;;;6375115;22;20003;-86
2024/04/14 17:56:04;;;;;;;24.92;4.15;;;;;;;;;;6377828;22;20039;-85
2024/04/14 17:58:38;;;;;;;30.45;5.18;;;;;;;;;;6376197;22;20032;-85
2024/04/14 18:01:06;;;;;;;30.80;4.55;;;;;;;;;;6375001;22;20076;-85
2024/04/14 18:03:33;;;;;;;;;;;;;;;;;;6370278;22;20082;-86
2024/04/14 18:06:14;;;;;;;31.45;4.93;;;;;;;;;;6373231;22;20352;-84
2024/04/14 18:08:41;;;;;;;32.88;4.85;;;;;;;;;;6373315;22;20003;-85
2024/04/14 18:11:15;;;;;;;36.47;6.10;;;;;;;;;;6373588;22;20007;-84
2024/04/14 18:13:42;;;;;;;31.95;5.25;;;;;;;;;;6373774;22;19996;-85
2024/04/14 18:16:17;;;;;;;28.23;5.10;;;;;;;;;;6373543;22;20007;-84
2024/04/14 18:18:51;;;;;;;28.33;5.25;;;;;;;;;;6372576;22;19999;-85
2024/04/14 18:21:19;;;;;;;34.25;5.45;;;;;;;;;;6370945;22;20022;-85
2024/04/14 18:23:46;;;;;;;;;;;;;;;;;;6374123;22;20011;-85
2024/04/14 18:26:20;;;;;;;37.35;5.35;;;;;;;;;;6374677;22;19935;-85
2024/04/14 18:28:48;;;;;;;;;;;;;;;;;;6373726;22;20023;-85
2024/04/14 18:31:22;;;;;;;46.20;5.47;;;;;;;;;;6372237;22;19995;-84
2024/04/14 18:33:50;;;;;;;26.70;4.88;;;;;;;;;;6372233;22;20036;-84
2024/04/14 18:36:17;;;;;;;;;;;;;;;;;;6374984;22;20014;-85
2024/04/14 18:38:51;;;;;;;40.90;5.80;;;;;;;;;;6374588;22;20014;-84
2024/04/14 18:41:19;;;;;;;;;;;;;;;;;;6373463;22;20561;-84
2024/04/14 18:43:46;;;;;;;36.83;4.82;;;;;;;;;;6371616;22;19998;-84
2024/04/14 18:46:20;;;;;;;30.88;5.60;;;;;;;;;;6373275;22;20015;-86
2024/04/14 18:48:53;;;;;;;32.83;5.68;;;;;;;;;;6374454;22;20305;-85
2024/04/14 18:51:27;;;;;;;38.83;5.85;;;;;;;;;;6375016;22;20014;-83
2024/04/14 18:53:54;;;;;;;42.00;6.20;;;;;;;;;;6373789;22;20015;-84
2024/04/14 18:56:28;;;;;;;41.08;6.38;;;;;;;;;;6375222;22;20015;-84
2024/04/14 18:58:55;;;;;;;37.03;5.53;;;;;;;;;;6374938;22;20007;-84
2024/04/14 19:01:23;;;;;;;51.95;6.57;;;;;;;;;;6375011;22;20078;-85
2024/04/14 19:04:04;;;;;;;38.75;5.88;;;;;;;;;;6374924;22;20082;-84
2024/04/14 19:06:32;;;;;;;29.10;4.97;;;;;;;;;;6374865;22;20003;-84
2024/04/14 19:09:06;;;;;;;29.45;4.60;;;;;;;;;;6375899;22;19995;-83
2024/04/14 19:11:34;;;;;;;29.27;5.60;;;;;;;;;;6375141;22;20007;-85
2024/04/14 19:14:03;;;;;;;26.98;5.05;;;;;;;;;;6369560;22;19999;-83
2024/04/14 19:16:46;;;;;;;36.90;5.82;;;;;;;;;;6374556;22;20024;-84
2024/04/14 19:19:13;;;;;;;23.27;4.00;;;;;;;;;;6373314;22;20003;-84
2024/04/14 19:21:47;;;;;;;39.45;4.90;;;;;;;;;;6373554;22;20356;-85
2024/04/14 19:24:14;;;;;;;;;;;;;;;;;;6370241;22;20433;-84
2024/04/14 19:26:48;;;;;;;34.55;4.40;;;;;;;;;;6370742;22;19923;-85
2024/04/14 19:29:16;;;;;;;36.60;5.40;;;;;;;;;;6373191;22;20019;-84
2024/04/14 19:31:43;;;;;;;37.78;5.05;;;;;;;;;;6371657;22;20011;-85
2024/04/14 19:34:17;;;;;;;36.63;4.85;;;;;;;;;;6370591;22;20389;-86
2024/04/14 19:36:45;;;;;;;41.90;5.32;;;;;;;;;;6370563;22;20015;-85
2024/04/14 19:39:13;;;;;;;;;;;;;;;;;;6370196;22;20003;-84
2024/04/14 19:41:47;;;;;;;36.08;4.65;;;;;;;;;;6373132;22;19935;-87
2024/04/14 19:44:14;;;;;;;37.28;5.63;;;;;;;;;;6370189;22;20007;-86
2024/04/14 19:46:48;;;;;;;36.92;5.45;;;;;;;;;;6372739;22;20015;-86
2024/04/14 19:49:15;;;;;;;;;;;;;;;;;;6374969;22;19999;-86
2024/04/14 19:51:49;;;;;;;42.30;5.22;;;;;;;;;;6374219;22;19935;-85
2024/04/14 19:54:17;;;;;;;34.88;5.97;;;;;;;;;;6372854;22;20445;-85
2024/04/14 19:56:45;;;;;;;38.97;4.93;;;;;;;;;;6371327;22;20308;-86
2024/04/14 19:59:19;;;;;;;31.60;4.88;;;;;;;;;;6372643;22;20384;-84
2024/04/14 20:01:46;;;;;;;;;;;;;;;;;;6373048;22;20643;-85
2024/04/14 20:04:27;;;;;;;35.10;5.22;;;;;;;;;;6371369;22;20339;-85
2024/04/14 20:06:54;;;;;;;37.20;5.53;;;;;;;;;;6370040;22;20396;-85
2024/04/14 20:09:28;;;;;;;33.65;5.20;;;;;;;;;;6372805;22;19999;-85
2024/04/14 20:12:02;;;;;;;44.70;5.07;;;;;;;;;;6370304;22;20488;-85
2024/04/14 20:14:44;;;;;;;29.35;4.63;;;;;;;;;;6367635;22;20010;-85
2024/04/14 20:17:11;;;;;;;39.83;4.47;;;;;;;;;;6370520;22;20007;-86
2024/04/14 20:19:46;;;;;;;25.45;5.38;;;;;;;;;;6371801;22;20000;-85
2024/04/14 20:22:13;;;;;;;29.27;4.95;;;;;;;;;;6368888;22;20015;-86
2024/04/14 20:24:40;;;;;;;32.88;4.47;;;;;;;;;;6370877;22;19999;-85
2024/04/14 20:27:14;;;;;;;37.70;5.55;;;;;;;;;;6373448;22;20361;-86
2024/04/14 20:29:43;;;;;;;30.88;4.45;;;;;;;;;;6375895;22;20003;-86
2024/04/14 20:32:17;;;;;;;30.63;4.60;;;;;;;;;;6374886;22;19999;-85
2024/04/14 20:34:44;;;;;;;;;;;;;;;;;;6375850;22;20011;-85
2024/04/14 20:37:12;;;;;;;31.77;4.65;;;;;;;;;;6375897;22;19935;-85
2024/04/14 20:39:46;;;;;;;39.10;5.82;;;;;;;;;;6372004;22;19995;-86
2024/04/14 20:42:13;;;;;;;;;;;;;;;;;;6376422;22;20031;-86
2024/04/14 20:44:41;;;;;;;25.38;3.97;;;;;;;;;;6374850;22;20362;-85
2024/04/14 20:47:15;;;;;;;31.58;4.40;;;;;;;;;;6375398;22;20014;-85
2024/04/14 20:49:49;;;;;;;37.13;5.40;;;;;;;;;;6373970;22;20005;-86
2024/04/14 20:52:23;;;;;;;36.35;5.00;;;;;;;;;;6375467;22;20003;-86
2024/04/14 20:54:50;;;;;;;;;;;;;;;;;;6377480;22;20003;-87
2024/04/14 20:57:18;;;;;;;26.55;4.32;;;;;;;;;;6375404;22;19934;-86
2024/04/14 20:59:52;;;;;;;31.85;4.70;;;;;;;;;;6376992;22;20044;-86
2024/04/14 21:02:20;;;;;;;39.80;4.88;;;;;;;;;;6373710;22;20019;-85
2024/04/14 21:04:47;;;;;;;28.13;4.55;;;;;;;;;;6370650;22;20014;-85
2024/04/14 21:07:28;;;;;;;43.42;4.93;;;;;;;;;;6375836;22;20014;-86
2024/04/14 21:09:55;;;;;;;43.00;5.18;;;;;;;;;;6375795;22;19995;-86